createdAt,value
2022-08-07T00:01:44.664Z,2.17
2022-08-07T00:03:56.988Z,2.28
2022-08-07T00:06:33.466Z,2.10
2022-08-07T00:09:16.659Z,2.15
2022-08-07T00:11:55.271Z,2.33
2022-08-07T00:14:32.199Z,2.30
2022-08-07T00:17:06.634Z,2.40
2022-08-07T00:19:59.797Z,2.35
2022-08-07T00:22:35.140Z,3.00
2022-08-07T00:25:11.135Z,2.17
2022-08-07T00:27:52.136Z,2.33
2022-08-07T00:30:28.536Z,2.38
2022-08-07T00:33:02.695Z,2.58
2022-08-07T00:35:36.625Z,2.17
2022-08-07T00:38:11.437Z,2.30
2022-08-07T00:40:45.526Z,2.40
2022-08-07T00:43:59.702Z,2.97
2022-08-07T00:46:10.728Z,2.30
2022-08-07T00:48:43.097Z,2.40
2022-08-07T00:51:15.774Z,2.40
2022-08-07T00:53:55.302Z,2.38
2022-08-07T00:56:30.178Z,2.67
2022-08-07T00:59:03.206Z,2.60
2022-08-07T01:01:44.579Z,2.22
2022-08-07T01:04:24.590Z,2.45
2022-08-07T01:06:58.278Z,2.53
2022-08-07T01:10:04.433Z,2.30
2022-08-07T01:12:29.879Z,3.03
2022-08-07T01:15:03.689Z,2.80
2022-08-07T01:17:37.927Z,2.40
2022-08-07T01:20:17.463Z,2.70
2022-08-07T01:23:09.065Z,2.60
2022-08-07T01:25:55.786Z,2.28
2022-08-07T01:28:29.228Z,2.78
2022-08-07T01:31:04.147Z,2.58
2022-08-07T01:33:55.236Z,2.60
2022-08-07T01:36:33.522Z,2.67
2022-08-07T01:39:11.657Z,2.35
2022-08-07T01:41:55.239Z,2.10
2022-08-07T01:44:38.018Z,2.33
2022-08-07T01:47:14.287Z,2.58
2022-08-07T01:50:03.688Z,2.63
2022-08-07T01:52:39.768Z,2.30
2022-08-07T01:55:28.846Z,2.60
2022-08-07T01:58:06.664Z,3.03
2022-08-07T02:01:09.725Z,2.47
2022-08-07T02:03:48.731Z,2.80
2022-08-07T02:06:31.225Z,2.30
2022-08-07T02:09:08.395Z,2.40
2022-08-07T02:12:04.721Z,2.63
2022-08-07T02:14:41.677Z,2.65
2022-08-07T02:17:24.879Z,2.85
2022-08-07T02:20:04.686Z,2.90
2022-08-07T02:22:43.699Z,3.00
2022-08-07T02:25:18.747Z,2.45
2022-08-07T02:27:55.296Z,2.92
2022-08-07T02:30:27.919Z,2.53
2022-08-07T02:33:08.960Z,3.00
2022-08-07T02:36:29.207Z,2.80
2022-08-07T02:38:40.178Z,2.67
2022-08-07T02:41:23.195Z,2.92
2022-08-07T02:44:15.430Z,2.70
2022-08-07T02:46:53.064Z,2.85
2022-08-07T02:49:56.507Z,2.72
2022-08-07T02:52:22.237Z,2.95
2022-08-07T02:55:27.359Z,3.05
2022-08-07T02:58:06.081Z,2.85
2022-08-07T03:00:47.564Z,2.75
2022-08-07T03:03:22.878Z,2.80
2022-08-07T03:05:57.968Z,2.70
2022-08-07T03:08:30.497Z,2.92
2022-08-07T03:11:05.006Z,3.13
2022-08-07T03:13:49.999Z,3.00
2022-08-07T03:16:27.866Z,2.67
2022-08-07T03:19:00.439Z,2.90
2022-08-07T03:21:33.723Z,2.88
2022-08-07T03:24:19.873Z,3.38
2022-08-07T03:27:03.610Z,2.85
2022-08-07T03:29:49.526Z,3.40
2022-08-07T03:32:30.580Z,2.80
2022-08-07T03:35:18.082Z,3.17
2022-08-07T03:37:57.279Z,3.22
2022-08-07T03:40:31.004Z,3.38
2022-08-07T03:43:14.495Z,3.25
2022-08-07T03:45:48.576Z,3.00
2022-08-07T03:48:24.059Z,3.40
2022-08-07T03:50:58.931Z,2.92
2022-08-07T03:54:01.804Z,3.47
2022-08-07T03:56:33.181Z,3.63
2022-08-07T03:59:13.333Z,5.15
2022-08-07T04:01:46.692Z,3.58
2022-08-07T04:04:23.609Z,3.22
2022-08-07T04:06:55.957Z,3.20
2022-08-07T04:09:45.513Z,3.22
2022-08-07T04:12:27.908Z,3.63
2022-08-07T04:15:04.888Z,3.53
2022-08-07T04:18:56.976Z,3.35
2022-08-07T04:20:32.236Z,3.33
2022-08-07T04:23:07.438Z,3.30
2022-08-07T04:25:51.909Z,3.10
2022-08-07T04:28:25.305Z,3.60
2022-08-07T04:30:58.743Z,3.20
2022-08-07T04:33:32.160Z,3.10
2022-08-07T04:36:12.030Z,3.22
2022-08-07T04:38:43.989Z,3.83
2022-08-07T04:41:19.144Z,3.30
2022-08-07T04:44:11.301Z,3.30
2022-08-07T04:47:04.232Z,3.45
2022-08-07T04:49:57.842Z,3.40
2022-08-07T04:52:46.677Z,3.40
2022-08-07T04:58:13.926Z,3.58
2022-08-07T04:58:34.842Z,3.50
2022-08-07T05:01:30.502Z,3.13
2022-08-07T05:04:17.092Z,3.00
2022-08-07T05:06:59.908Z,2.80
2022-08-07T05:09:51.618Z,2.88
2022-08-07T05:12:30.726Z,2.90
2022-08-07T05:15:23.031Z,2.55
2022-08-07T05:18:01.744Z,3.20
2022-08-07T05:20:44.849Z,3.00
2022-08-07T05:23:23.206Z,3.10
2022-08-07T05:26:13.625Z,3.00
2022-08-07T05:28:51.687Z,2.67
2022-08-07T05:31:34.522Z,2.55
2022-08-07T05:34:11.398Z,2.53
2022-08-07T05:36:52.875Z,2.70
2022-08-07T05:40:14.055Z,2.70
2022-08-07T05:42:33.761Z,3.00
2022-08-07T05:45:14.716Z,2.45
2022-08-07T05:48:03.641Z,2.50
2022-08-07T05:50:39.385Z,2.80
2022-08-07T05:54:09.726Z,2.17
2022-08-07T05:56:08.828Z,2.10
2022-08-07T05:58:52.750Z,2.30
2022-08-07T06:01:27.120Z,2.40
2022-08-07T06:04:08.447Z,2.10
2022-08-07T06:06:46.339Z,2.10
2022-08-07T06:09:21.349Z,2.25
2022-08-07T06:12:15.401Z,1.90
2022-08-07T06:14:51.655Z,2.08
2022-08-07T06:17:31.915Z,1.80
2022-08-07T06:20:31.881Z,1.80
2022-08-07T06:23:45.881Z,2.03
2022-08-07T06:26:07.579Z,1.98
2022-08-07T06:28:52.811Z,1.83
2022-08-07T06:31:46.610Z,1.98
2022-08-07T06:34:21.559Z,1.85
2022-08-07T06:36:54.198Z,1.95
2022-08-07T06:40:16.344Z,1.65
2022-08-07T06:42:33.034Z,1.80
2022-08-07T06:45:18.034Z,2.08
2022-08-07T06:47:58.621Z,1.80
2022-08-07T06:50:36.081Z,1.83
2022-08-07T06:54:11.845Z,2.20
2022-08-07T06:56:03.691Z,1.85
2022-08-07T07:00:13.788Z,1.70
2022-08-07T07:01:42.047Z,1.70
2022-08-07T07:04:32.695Z,1.95
2022-08-07T07:07:19.046Z,1.50
2022-08-07T07:09:59.907Z,1.70
2022-08-07T07:12:48.413Z,1.90
2022-08-07T07:15:26.506Z,1.42
2022-08-07T07:18:13.399Z,1.67
2022-08-07T07:20:54.886Z,1.88
2022-08-07T07:24:08.570Z,1.60
2022-08-07T07:26:32.620Z,1.75
2022-08-07T07:29:56.427Z,2.00
2022-08-07T07:32:11.820Z,2.22
2022-08-07T07:34:50.095Z,2.55
2022-08-07T07:37:49.401Z,2.17
2022-08-07T07:40:25.296Z,2.30
2022-08-07T07:43:15.176Z,2.50
2022-08-07T07:46:39.946Z,2.30
2022-08-07T07:48:47.090Z,2.10
2022-08-07T07:51:22.919Z,2.10
2022-08-07T07:53:59.888Z,1.98
2022-08-07T07:56:36.529Z,1.90
2022-08-07T07:59:09.468Z,1.83
2022-08-07T08:02:03.296Z,1.73
2022-08-07T08:04:40.299Z,1.60
2022-08-07T08:07:13.887Z,1.73
2022-08-07T08:10:05.412Z,1.65
2022-08-07T08:12:52.297Z,1.73
2022-08-07T08:15:57.641Z,1.58
2022-08-07T08:18:27.939Z,1.42
2022-08-07T08:21:04.587Z,1.80
2022-08-07T08:23:52.147Z,1.63
2022-08-07T08:26:40.807Z,1.58
2022-08-07T08:29:16.025Z,1.38
2022-08-07T08:32:16.715Z,1.60
2022-08-07T08:34:46.534Z,1.25
2022-08-07T08:38:01.129Z,1.80
2022-08-07T08:40:27.829Z,1.48
2022-08-07T08:43:12.379Z,1.58
2022-08-07T08:45:59.154Z,1.90
2022-08-07T08:48:43.271Z,1.38
2022-08-07T08:51:49.566Z,1.52
2022-08-07T08:54:24.344Z,1.40
2022-08-07T08:56:59.588Z,1.50
2022-08-07T08:59:48.470Z,1.48
2022-08-07T09:02:37.543Z,1.50
2022-08-07T09:05:41.330Z,1.38
2022-08-07T09:08:29.500Z,1.30
2022-08-07T09:11:24.864Z,1.80
2022-08-07T09:14:15.219Z,1.60
2022-08-07T09:17:03.758Z,1.77
2022-08-07T09:19:57.030Z,1.52
2022-08-07T09:24:32.367Z,1.30
2022-08-07T09:25:53.993Z,1.60
2022-08-07T09:30:05.705Z,1.40
2022-08-07T09:31:40.429Z,1.58
2022-08-07T09:34:33.147Z,1.30
2022-08-07T09:37:11.138Z,1.50
2022-08-07T09:39:57.968Z,1.52
2022-08-07T09:42:51.332Z,1.40
2022-08-07T09:47:50.580Z,1.23
2022-08-07T09:49:02.277Z,1.58
2022-08-07T09:52:10.402Z,1.42
2022-08-07T09:54:52.839Z,1.63
2022-08-07T09:57:53.369Z,1.65
2022-08-07T10:00:33.159Z,1.27
2022-08-07T10:04:06.763Z,1.35
2022-08-07T10:06:54.073Z,1.60
2022-08-07T10:10:03.334Z,1.35
2022-08-07T10:12:58.929Z,1.40
2022-08-07T10:15:56.426Z,1.50
2022-08-07T10:18:48.536Z,1.45
2022-08-07T10:22:11.994Z,1.60
2022-08-07T10:25:07.138Z,1.33
2022-08-07T10:27:56.001Z,1.73
2022-08-07T10:30:37.998Z,1.40
2022-08-07T10:34:05.689Z,1.30
2022-08-07T10:36:37.774Z,1.30
2022-08-07T10:39:21.922Z,1.50
2022-08-07T10:42:20.928Z,1.58
2022-08-07T10:45:05.768Z,1.40
2022-08-07T10:47:59.908Z,1.30
2022-08-07T10:50:44.895Z,1.40
2022-08-07T10:53:41.847Z,1.30
2022-08-07T10:56:30.940Z,1.30
2022-08-07T10:59:37.054Z,1.40
2022-08-07T11:02:33.478Z,1.20
2022-08-07T11:05:17.084Z,1.52
2022-08-07T11:08:03.478Z,1.30
2022-08-07T11:10:42.445Z,1.45
2022-08-07T11:14:45.607Z,1.40
2022-08-07T11:16:29.813Z,1.50
2022-08-07T11:19:08.993Z,1.50
2022-08-07T11:21:48.875Z,1.38
2022-08-07T11:24:27.413Z,1.73
2022-08-07T11:27:16.914Z,1.88
2022-08-07T11:30:17.798Z,1.65
2022-08-07T11:33:00.174Z,1.27
2022-08-07T11:35:59.686Z,1.50
2022-08-07T11:38:36.924Z,2.40
2022-08-07T11:41:18.258Z,1.40
2022-08-07T11:44:14.302Z,1.65
2022-08-07T11:47:05.981Z,1.63
2022-08-07T11:50:31.190Z,1.50
2022-08-07T11:53:14.013Z,1.23
2022-08-07T11:56:27.555Z,1.48
2022-08-07T12:00:09.955Z,1.40
2022-08-07T12:02:52.683Z,1.35
2022-08-07T12:06:37.844Z,1.30
2022-08-07T12:10:05.877Z,1.30
2022-08-07T12:13:01.475Z,1.48
2022-08-07T12:16:06.564Z,1.52
2022-08-07T12:18:57.098Z,1.60
2022-08-07T12:22:37.933Z,1.30
2022-08-07T12:25:07.540Z,1.52
2022-08-07T12:28:04.056Z,1.20
2022-08-07T12:30:46.969Z,1.30
2022-08-07T12:33:30.916Z,1.33
2022-08-07T12:36:32.626Z,1.17
2022-08-07T12:39:44.209Z,1.40
2022-08-07T12:42:04.564Z,1.42
2022-08-07T12:44:43.044Z,1.50
2022-08-07T12:47:37.266Z,1.42
2022-08-07T12:50:34.247Z,1.23
2022-08-07T12:53:21.889Z,1.50
2022-08-07T12:56:09.387Z,1.38
2022-08-07T12:58:57.283Z,1.30
2022-08-07T13:01:46.222Z,1.33
2022-08-07T13:04:49.049Z,1.50
2022-08-07T13:08:25.697Z,1.42
2022-08-07T13:11:19.527Z,1.30
2022-08-07T13:14:05.277Z,1.50
2022-08-07T13:16:51.378Z,1.40
2022-08-07T13:19:50.162Z,1.52
2022-08-07T13:22:33.566Z,1.40
2022-08-07T13:25:23.931Z,1.30
2022-08-07T13:28:13.378Z,1.40
2022-08-07T13:31:01.602Z,1.30
2022-08-07T13:34:30.524Z,1.30
2022-08-07T13:36:46.648Z,1.17
2022-08-07T13:40:34.165Z,1.30
2022-08-07T13:42:27.828Z,1.45
2022-08-07T13:46:07.113Z,1.25
2022-08-07T13:48:07.673Z,1.42
2022-08-07T13:50:45.241Z,1.42
2022-08-07T13:54:00.688Z,1.40
2022-08-07T13:56:41.182Z,1.42
2022-08-07T13:59:27.940Z,1.33
2022-08-07T14:02:10.089Z,1.10
2022-08-07T14:04:54.823Z,1.40
2022-08-07T14:07:31.285Z,1.40
2022-08-07T14:10:21.930Z,1.40
2022-08-07T14:13:01.637Z,1.25
2022-08-07T14:15:39.433Z,1.15
2022-08-07T14:18:28.657Z,1.30
2022-08-07T14:22:01.187Z,1.10
2022-08-07T14:24:11.323Z,1.48
2022-08-07T14:26:51.804Z,1.35
2022-08-07T14:30:05.897Z,1.33
2022-08-07T14:32:21.244Z,1.30
2022-08-07T14:38:26.368Z,1.23
2022-08-07T14:41:05.593Z,1.67
2022-08-07T14:43:57.265Z,1.55
2022-08-07T14:46:33.578Z,2.00
2022-08-07T14:49:55.928Z,1.42
2022-08-07T14:54:56.954Z,1.70
2022-08-07T16:04:14.903Z,1.92
2022-08-07T16:08:33.151Z,1.92
2022-08-07T16:10:31.413Z,1.33
2022-08-07T16:13:59.040Z,1.23
2022-08-07T16:18:01.719Z,1.73
2022-08-07T16:20:36.967Z,1.50
2022-08-07T16:23:52.933Z,1.38
2022-08-07T16:26:30.509Z,1.83
2022-08-07T16:30:06.346Z,1.23
2022-08-07T16:32:34.638Z,1.58
2022-08-07T16:35:58.825Z,1.85
2022-08-07T16:39:01.515Z,1.25
2022-08-07T16:42:00.281Z,1.77
2022-08-07T16:46:21.213Z,1.45
2022-08-07T16:48:53.533Z,1.20
2022-08-07T16:51:57.858Z,1.45
2022-08-07T16:54:55.060Z,1.58
2022-08-07T16:58:01.647Z,1.20
2022-08-07T17:00:36.856Z,1.92
2022-08-07T17:04:00.110Z,2.08
2022-08-07T17:10:33.778Z,1.55
2022-08-07T17:14:18.543Z,1.83
2022-08-07T17:17:21.641Z,1.55
2022-08-07T17:20:14.267Z,1.70
2022-08-07T17:23:03.268Z,1.40
2022-08-07T17:26:49.761Z,1.60
2022-08-07T17:30:15.733Z,1.83
2022-08-07T17:33:05.596Z,1.88
2022-08-07T17:36:02.646Z,1.60
2022-08-07T17:38:44.478Z,1.50
2022-08-07T17:42:02.490Z,1.65
2022-08-07T17:44:41.605Z,1.70
2022-08-07T17:47:38.320Z,1.30
2022-08-07T17:50:20.045Z,1.60
2022-08-07T17:52:59.078Z,1.77
2022-08-07T17:55:54.151Z,1.70
2022-08-07T17:58:46.495Z,2.00
2022-08-07T18:01:27.718Z,2.90
2022-08-07T18:04:21.880Z,2.03
2022-08-07T18:07:20.898Z,1.70
2022-08-07T18:10:07.533Z,1.50
2022-08-07T18:13:09.952Z,1.83
2022-08-07T18:15:58.921Z,1.85
2022-08-07T18:21:03.008Z,2.00
2022-08-07T18:21:55.171Z,1.90
2022-08-07T18:24:35.441Z,1.83
2022-08-07T18:27:39.207Z,1.52
2022-08-07T18:30:31.672Z,2.15
2022-08-07T18:33:54.790Z,1.90
2022-08-07T18:36:41.077Z,1.83
2022-08-07T18:40:07.038Z,1.98
2022-08-07T18:42:28.583Z,1.80
2022-08-07T18:45:44.583Z,1.75
2022-08-07T18:50:05.840Z,1.73
2022-08-07T18:52:35.031Z,1.98
2022-08-07T18:54:31.224Z,2.22
2022-08-07T18:57:40.270Z,2.10
2022-08-07T19:00:34.349Z,1.80
2022-08-07T19:03:16.661Z,1.88
2022-08-07T19:06:02.462Z,2.10
2022-08-07T19:08:53.591Z,2.00
2022-08-07T19:12:03.931Z,2.13
2022-08-07T19:16:03.004Z,2.17
2022-08-07T19:18:14.546Z,1.92
2022-08-07T19:21:08.321Z,1.92
2022-08-07T19:23:57.918Z,1.90
2022-08-07T19:27:10.374Z,1.80
2022-08-07T19:31:02.235Z,2.10
2022-08-07T19:32:32.547Z,2.03
2022-08-07T19:35:15.977Z,2.45
2022-08-07T19:37:56.546Z,2.58
2022-08-07T19:40:49.637Z,2.60
2022-08-07T19:43:45.081Z,2.17
2022-08-07T19:46:35.858Z,2.50
2022-08-07T19:49:09.738Z,2.50
2022-08-07T19:51:53.254Z,2.42
2022-08-07T19:54:44.973Z,2.47
2022-08-07T19:58:00.290Z,2.38
2022-08-07T20:00:38.974Z,2.67
2022-08-07T20:03:35.570Z,2.63
2022-08-07T20:06:28.401Z,2.90
2022-08-07T20:09:03.667Z,2.15
2022-08-07T20:12:22.330Z,2.90
2022-08-07T20:14:53.895Z,2.75
2022-08-07T20:17:38.631Z,2.40
2022-08-07T20:20:13.720Z,2.60
2022-08-07T20:22:49.046Z,2.72
2022-08-07T20:25:22.275Z,2.45
2022-08-07T20:28:03.344Z,2.55
2022-08-07T20:30:46.844Z,2.65
2022-08-07T20:33:36.250Z,2.08
2022-08-07T20:36:13.369Z,2.33
2022-08-07T20:39:00.304Z,2.50
2022-08-07T20:41:40.297Z,2.55
2022-08-07T20:44:14.447Z,2.42
2022-08-07T20:47:05.847Z,2.60
2022-08-07T20:49:59.336Z,3.10
2022-08-07T20:52:51.972Z,2.78
2022-08-07T20:55:25.827Z,2.83
2022-08-07T20:58:19.507Z,2.78
2022-08-07T21:01:04.755Z,2.78
2022-08-07T21:04:07.224Z,2.72
2022-08-07T21:06:42.462Z,3.00
2022-08-07T21:09:27.875Z,3.03
2022-08-07T21:12:05.685Z,3.00
2022-08-07T21:14:48.357Z,3.20
2022-08-07T21:18:03.235Z,3.33
2022-08-07T21:20:30.059Z,3.40
2022-08-07T21:23:11.361Z,3.55
2022-08-07T21:26:03.403Z,3.20
2022-08-07T21:28:48.887Z,3.45
2022-08-07T21:31:49.877Z,3.20
2022-08-07T21:34:33.094Z,3.45
2022-08-07T21:37:14.693Z,3.22
2022-08-07T21:39:57.467Z,3.28
2022-08-07T21:42:48.865Z,3.00
2022-08-07T21:46:09.179Z,2.55
2022-08-07T21:48:33.788Z,2.60
2022-08-07T21:51:19.982Z,2.65
2022-08-07T21:54:16.244Z,2.80
2022-08-07T21:57:31.122Z,2.90
2022-08-07T22:00:11.279Z,2.85
2022-08-07T22:03:05.777Z,2.60
2022-08-07T22:05:50.150Z,3.63
2022-08-07T22:08:26.051Z,2.80
2022-08-07T22:11:03.813Z,3.05
2022-08-07T22:13:52.250Z,2.70
2022-08-07T22:16:43.937Z,3.40
2022-08-07T22:19:39.181Z,2.97
2022-08-07T22:22:21.062Z,2.97
2022-08-07T22:25:11.326Z,3.03
2022-08-07T22:28:24.628Z,2.85
2022-08-07T22:30:58.215Z,3.10
2022-08-07T22:33:56.368Z,2.70
2022-08-07T22:36:40.664Z,3.05
2022-08-07T22:39:29.495Z,3.25
2022-08-07T22:42:19.506Z,3.17
2022-08-07T22:44:59.857Z,2.67
2022-08-07T22:47:58.945Z,2.78
2022-08-07T22:50:50.016Z,3.13
2022-08-07T22:54:05.423Z,3.05
2022-08-07T22:56:42.797Z,3.13
2022-08-07T22:59:53.178Z,3.00
2022-08-07T23:03:00.895Z,3.45
2022-08-07T23:06:08.314Z,3.22
2022-08-07T23:10:00.937Z,4.82
2022-08-07T23:12:09.886Z,3.90
2022-08-07T23:15:04.287Z,3.20
2022-08-07T23:18:02.896Z,3.00
2022-08-07T23:20:54.814Z,3.00
2022-08-07T23:24:06.746Z,3.20
2022-08-07T23:26:56.264Z,2.90
2022-08-07T23:30:38.281Z,3.08
2022-08-07T23:34:21.382Z,2.90
2022-08-07T23:36:34.795Z,3.47
2022-08-07T23:39:22.054Z,2.90
2022-08-07T23:42:21.698Z,2.85
2022-08-07T23:46:01.407Z,3.05
2022-08-07T23:48:44.104Z,3.15
2022-08-07T23:53:02.154Z,3.22
2022-08-07T23:54:36.211Z,3.00
2022-08-07T23:57:27.695Z,3.00
